createdAt,value
2018-12-17T00:00:20.747Z,22.17
2018-12-17T00:02:49.048Z,23.30
2018-12-17T00:05:17.240Z,20.33
2018-12-17T00:07:45.586Z,20.97
2018-12-17T00:10:13.873Z,20.47
2018-12-17T00:12:42.076Z,21.73
2018-12-17T00:15:10.315Z,21.13
2018-12-17T00:17:38.518Z,20.87
2018-12-17T00:20:07.804Z,19.87
2018-12-17T00:22:35.975Z,20.10
2018-12-17T00:25:04.376Z,20.37
2018-12-17T00:27:32.563Z,19.47
2018-12-17T00:30:00.873Z,21.20
2018-12-17T00:32:29.229Z,19.73
2018-12-17T00:34:57.391Z,19.33
2018-12-17T00:37:29.473Z,18.73
2018-12-17T00:39:58.254Z,18.90
2018-12-17T00:42:26.527Z,19.83
2018-12-17T00:44:54.705Z,19.47
2018-12-17T00:47:22.985Z,20.27
2018-12-17T00:49:51.176Z,19.53
2018-12-17T00:52:19.363Z,21.13
2018-12-17T00:54:47.624Z,20.77
2018-12-17T00:57:15.984Z,18.37
2018-12-17T00:59:44.257Z,19.77
2018-12-17T01:02:33.145Z,18.47
2018-12-17T01:05:01.365Z,18.03
2018-12-17T01:07:30.716Z,21.40
2018-12-17T01:09:59.197Z,17.90
2018-12-17T01:12:27.473Z,18.73
2018-12-17T01:14:55.813Z,20.10
2018-12-17T01:17:25.089Z,19.63
2018-12-17T01:19:53.416Z,19.50
2018-12-17T01:22:21.668Z,18.57
2018-12-17T01:24:49.969Z,19.27
2018-12-17T01:27:25.960Z,20.07
2018-12-17T01:29:54.175Z,19.63
2018-12-17T01:32:22.460Z,21.00
2018-12-17T01:34:50.631Z,18.53
2018-12-17T01:37:18.885Z,18.67
2018-12-17T01:39:47.264Z,18.80
2018-12-17T01:42:15.516Z,19.57
2018-12-17T01:44:43.757Z,18.10
2018-12-17T01:47:11.958Z,20.53
2018-12-17T01:49:40.266Z,20.63
2018-12-17T01:52:08.437Z,18.93
2018-12-17T01:54:36.624Z,20.03
2018-12-17T01:57:05.093Z,21.00
2018-12-17T01:59:33.354Z,18.53
2018-12-17T02:02:01.576Z,19.40
2018-12-17T02:04:29.838Z,20.17
2018-12-17T02:06:58.181Z,20.07
2018-12-17T02:09:26.462Z,20.60
2018-12-17T02:11:54.687Z,19.60
2018-12-17T02:14:22.924Z,19.97
2018-12-17T02:16:51.226Z,19.10
2018-12-17T02:19:19.446Z,19.10
2018-12-17T02:21:47.819Z,20.53
2018-12-17T02:24:16.014Z,19.70
2018-12-17T02:26:44.306Z,20.20
2018-12-17T02:29:12.555Z,18.20
2018-12-17T02:31:40.747Z,21.10
2018-12-17T02:34:08.935Z,19.03
2018-12-17T02:36:37.160Z,20.00
2018-12-17T02:39:07.964Z,21.33
2018-12-17T02:41:36.252Z,20.83
2018-12-17T02:44:05.136Z,20.53
2018-12-17T02:46:33.391Z,20.60
2018-12-17T02:49:01.597Z,19.97
2018-12-17T02:51:30.040Z,19.63
2018-12-17T02:53:58.231Z,18.90
2018-12-17T02:56:26.517Z,20.97
2018-12-17T02:58:54.727Z,20.37
2018-12-17T03:01:23.000Z,19.87
2018-12-17T03:03:51.267Z,19.83
2018-12-17T03:06:19.453Z,19.40
2018-12-17T03:08:47.793Z,22.70
2018-12-17T03:11:15.956Z,21.67
2018-12-17T03:13:50.527Z,21.83
2018-12-17T03:16:19.745Z,20.00
2018-12-17T03:18:47.947Z,21.20
2018-12-17T03:21:16.234Z,20.10
2018-12-17T03:23:44.412Z,22.37
2018-12-17T03:26:12.636Z,20.87
2018-12-17T03:28:40.819Z,19.90
2018-12-17T03:31:09.068Z,20.40
2018-12-17T03:33:37.303Z,19.77
2018-12-17T03:36:05.532Z,19.33
2018-12-17T03:38:33.747Z,21.03
2018-12-17T03:41:02.017Z,21.50
2018-12-17T03:43:30.261Z,22.07
2018-12-17T03:46:00.126Z,21.67
2018-12-17T03:48:28.800Z,21.97
2018-12-17T03:50:57.003Z,19.27
2018-12-17T03:53:25.217Z,20.43
2018-12-17T03:55:53.497Z,20.57
2018-12-17T03:58:21.775Z,20.70
2018-12-17T04:00:49.946Z,21.53
2018-12-17T04:03:18.194Z,21.53
2018-12-17T04:05:49.893Z,20.87
2018-12-17T04:08:18.109Z,20.67
2018-12-17T04:10:46.360Z,21.77
2018-12-17T04:13:14.568Z,21.63
2018-12-17T04:15:42.845Z,22.40
2018-12-17T04:18:11.105Z,23.30
2018-12-17T04:20:39.330Z,24.07
2018-12-17T04:23:07.472Z,22.37
2018-12-17T04:25:35.706Z,22.67
2018-12-17T04:28:04.002Z,22.87
2018-12-17T04:30:32.180Z,20.47
2018-12-17T04:33:00.369Z,21.83
2018-12-17T04:35:28.634Z,21.80
2018-12-17T04:37:56.893Z,23.93
2018-12-17T04:40:25.073Z,23.83
2018-12-17T04:42:53.267Z,23.37
2018-12-17T04:45:21.552Z,24.63
2018-12-17T04:47:49.814Z,24.10
2018-12-17T04:50:17.988Z,25.77
2018-12-17T04:52:46.340Z,24.90
2018-12-17T04:55:14.538Z,22.10
2018-12-17T04:57:43.054Z,23.90
2018-12-17T05:00:11.409Z,22.93
2018-12-17T05:02:39.574Z,23.00
2018-12-17T05:05:08.446Z,23.33
2018-12-17T05:07:36.639Z,23.20
2018-12-17T05:10:05.954Z,22.17
2018-12-17T05:12:34.210Z,21.97
2018-12-17T05:15:03.765Z,23.93
2018-12-17T05:17:32.227Z,24.27
2018-12-17T05:20:00.484Z,25.57
2018-12-17T05:22:28.781Z,23.37
2018-12-17T05:24:57.204Z,25.60
2018-12-17T05:27:25.409Z,24.13
2018-12-17T05:29:53.612Z,24.87
2018-12-17T05:32:22.157Z,26.27
2018-12-17T05:34:50.434Z,27.27
2018-12-17T05:37:18.773Z,25.10
2018-12-17T05:39:47.037Z,26.33
2018-12-17T05:42:15.289Z,25.60
2018-12-17T05:44:43.459Z,24.93
2018-12-17T05:47:11.626Z,26.87
2018-12-17T05:49:39.957Z,24.57
2018-12-17T05:52:08.386Z,35.20
2018-12-17T05:54:36.579Z,27.60
2018-12-17T05:57:04.921Z,27.47
2018-12-17T05:59:33.302Z,29.73
2018-12-17T06:02:01.496Z,27.63
2018-12-17T06:04:29.768Z,27.27
2018-12-17T06:06:57.935Z,25.93
2018-12-17T06:09:26.215Z,29.07
2018-12-17T06:11:54.621Z,26.20
2018-12-17T06:14:22.901Z,27.50
2018-12-17T06:16:51.125Z,25.70
2018-12-17T06:19:19.311Z,28.73
2018-12-17T06:21:47.497Z,24.40
2018-12-17T06:24:15.855Z,24.80
2018-12-17T06:26:52.342Z,27.17
2018-12-17T06:29:35.387Z,26.43
2018-12-17T06:31:58.954Z,26.80
2018-12-17T06:34:27.103Z,25.27
2018-12-17T06:37:00.565Z,23.37
2018-12-17T06:39:28.777Z,25.60
2018-12-17T06:41:56.952Z,25.30
2018-12-17T06:44:25.276Z,24.97
2018-12-17T06:46:53.612Z,25.23
2018-12-17T06:49:21.830Z,25.50
2018-12-17T06:51:51.115Z,24.60
2018-12-17T06:54:20.892Z,25.93
2018-12-17T06:56:49.064Z,25.83
2018-12-17T06:59:17.421Z,26.27
2018-12-17T07:01:46.184Z,24.07
2018-12-17T07:04:14.467Z,26.13
2018-12-17T07:06:42.615Z,24.63
2018-12-17T07:09:13.758Z,26.80
2018-12-17T07:11:42.024Z,24.23
2018-12-17T07:14:10.196Z,23.97
2018-12-17T07:16:38.464Z,25.03
2018-12-17T07:19:06.660Z,24.47
2018-12-17T07:21:34.849Z,24.17
2018-12-17T07:24:03.039Z,26.17
2018-12-17T07:26:31.282Z,23.47
2018-12-17T07:28:59.464Z,23.70
2018-12-17T07:31:27.594Z,25.07
2018-12-17T07:33:55.854Z,24.60
2018-12-17T07:36:24.149Z,24.40
2018-12-17T07:38:52.376Z,22.57
2018-12-17T07:41:20.586Z,23.77
2018-12-17T07:43:48.932Z,24.53
2018-12-17T07:46:17.255Z,24.33
2018-12-17T07:48:46.150Z,22.67
2018-12-17T07:51:14.329Z,25.30
2018-12-17T07:53:42.963Z,22.83
2018-12-17T07:56:11.299Z,24.10
2018-12-17T07:58:39.649Z,24.00
2018-12-17T08:01:07.892Z,24.57
2018-12-17T08:03:36.140Z,24.13
2018-12-17T08:06:04.584Z,25.13
2018-12-17T08:08:35.608Z,22.60
2018-12-17T08:11:03.151Z,22.47
2018-12-17T08:13:31.595Z,22.07
2018-12-17T08:15:59.889Z,22.70
2018-12-17T08:18:28.199Z,23.33
2018-12-17T08:20:57.539Z,24.50
2018-12-17T08:23:25.837Z,24.90
2018-12-17T08:25:54.123Z,29.07
2018-12-17T08:28:22.321Z,26.43
2018-12-17T08:30:50.472Z,26.00
2018-12-17T08:33:18.684Z,24.43
2018-12-17T08:35:47.085Z,26.73
2018-12-17T08:38:15.495Z,28.87
2018-12-17T08:40:43.670Z,23.30
2018-12-17T08:43:12.748Z,25.43
2018-12-17T08:45:41.040Z,30.67
2018-12-17T08:48:09.336Z,24.23
2018-12-17T08:50:37.724Z,27.57
2018-12-17T08:53:05.992Z,25.10
2018-12-17T08:55:34.340Z,25.37
2018-12-17T08:58:02.657Z,25.30
2018-12-17T09:00:30.827Z,26.43
2018-12-17T09:02:59.001Z,23.80
2018-12-17T09:05:27.172Z,26.03
2018-12-17T09:07:57.399Z,26.30
2018-12-17T09:13:25.851Z,25.87
2018-12-17T09:15:54.339Z,25.10
2018-12-17T09:18:25.390Z,24.60
2018-12-17T09:20:53.687Z,25.97
2018-12-17T09:23:21.869Z,30.13
2018-12-17T09:25:50.116Z,25.47
2018-12-17T09:28:18.466Z,25.53
2018-12-17T09:30:46.849Z,28.73
2018-12-17T09:33:15.110Z,27.07
2018-12-17T09:35:43.416Z,23.63
2018-12-17T09:38:11.627Z,27.90
2018-12-17T09:40:39.916Z,25.27
2018-12-17T09:43:08.436Z,24.87
2018-12-17T09:45:36.700Z,27.70
2018-12-17T09:48:05.034Z,27.43
2018-12-17T09:50:33.313Z,28.57
2018-12-17T09:53:01.468Z,25.33
2018-12-17T09:55:29.744Z,25.60
2018-12-17T09:57:58.693Z,27.80
2018-12-17T10:00:28.949Z,28.03
2018-12-17T10:02:57.338Z,29.03
2018-12-17T10:05:25.782Z,28.57
2018-12-17T10:07:53.979Z,28.30
2018-12-17T10:10:22.154Z,27.37
2018-12-17T10:12:50.352Z,32.13
2018-12-17T10:15:18.517Z,29.53
2018-12-17T10:17:46.887Z,31.77
2018-12-17T10:20:15.048Z,31.80
2018-12-17T10:22:43.222Z,27.60
2018-12-17T10:25:11.609Z,30.43
2018-12-17T10:27:39.851Z,33.00
2018-12-17T10:30:08.143Z,33.30
2018-12-17T10:32:36.562Z,36.33
2018-12-17T10:35:05.235Z,32.70
2018-12-17T10:37:33.453Z,31.23
2018-12-17T10:40:01.738Z,31.27
2018-12-17T10:42:29.949Z,33.83
2018-12-17T10:44:58.149Z,30.77
2018-12-17T10:47:26.459Z,31.37
2018-12-17T10:49:54.677Z,28.97
2018-12-17T10:52:22.949Z,33.97
2018-12-17T10:54:51.129Z,36.23
2018-12-17T10:57:19.340Z,32.53
2018-12-17T10:59:47.588Z,30.33
2018-12-17T11:02:20.852Z,31.87
2018-12-17T11:04:54.049Z,30.70
2018-12-17T11:07:22.259Z,30.03
2018-12-17T11:09:50.637Z,30.10
2018-12-17T11:12:20.071Z,26.43
2018-12-17T11:14:48.376Z,28.97
2018-12-17T11:17:16.560Z,28.17
2018-12-17T11:19:44.769Z,30.47
2018-12-17T11:22:13.069Z,26.87
2018-12-17T11:24:41.268Z,26.57
2018-12-17T11:27:09.477Z,25.83
2018-12-17T11:29:37.821Z,25.67
2018-12-17T11:32:11.574Z,26.40
2018-12-17T11:34:36.263Z,27.90
2018-12-17T11:37:04.603Z,26.20
2018-12-17T11:39:32.797Z,24.47
2018-12-17T11:42:01.056Z,24.90
2018-12-17T11:44:29.323Z,22.90
2018-12-17T11:46:57.530Z,26.30
2018-12-17T11:49:25.809Z,25.53
2018-12-17T11:51:54.152Z,25.33
2018-12-17T11:54:22.449Z,23.83
2018-12-17T11:58:12.008Z,24.63
2018-12-17T12:00:43.721Z,24.90
2018-12-17T12:03:12.019Z,25.37
2018-12-17T12:05:40.175Z,26.70
2018-12-17T12:08:08.406Z,26.27
2018-12-17T12:10:36.597Z,23.80
2018-12-17T12:13:04.956Z,25.37
2018-12-17T12:15:33.321Z,26.67
2018-12-17T12:18:01.496Z,26.50
2018-12-17T12:20:29.799Z,24.27
2018-12-17T12:22:58.150Z,25.97
2018-12-17T12:25:26.509Z,23.53
2018-12-17T12:27:54.764Z,25.70
2018-12-17T12:30:22.987Z,25.27
2018-12-17T12:32:51.155Z,25.43
2018-12-17T12:35:19.343Z,24.87
2018-12-17T12:37:47.584Z,25.70
2018-12-17T12:40:15.886Z,25.60
2018-12-17T12:42:51.223Z,24.70
2018-12-17T12:45:14.391Z,25.23
2018-12-17T12:47:42.564Z,22.67
2018-12-17T12:50:10.869Z,24.73
2018-12-17T12:52:39.228Z,26.17
2018-12-17T12:55:07.700Z,24.07
2018-12-17T12:57:35.950Z,24.37
2018-12-17T13:00:06.530Z,23.03
2018-12-17T13:02:40.634Z,22.60
2018-12-17T13:05:08.970Z,25.10
2018-12-17T13:07:37.160Z,22.10
2018-12-17T13:10:09.096Z,21.67
2018-12-17T13:12:37.327Z,24.87
2018-12-17T13:15:06.828Z,22.07
2018-12-17T13:17:35.043Z,21.77
2018-12-17T13:20:05.612Z,24.03
2018-12-17T13:22:34.490Z,20.70
2018-12-17T13:25:02.719Z,21.20
2018-12-17T13:27:30.947Z,23.80
2018-12-17T13:29:59.232Z,22.80
2018-12-17T13:32:27.501Z,21.83
2018-12-17T13:34:55.659Z,22.33
2018-12-17T13:37:23.921Z,21.60
2018-12-17T13:39:52.107Z,23.20
2018-12-17T13:42:20.301Z,20.80
2018-12-17T13:44:52.290Z,24.53
2018-12-17T13:47:20.475Z,21.93
2018-12-17T13:49:48.824Z,22.47
2018-12-17T13:52:22.391Z,24.70
2018-12-17T13:54:50.733Z,21.17
2018-12-17T13:57:18.981Z,25.50
2018-12-17T13:59:47.289Z,22.00
2018-12-17T14:02:15.625Z,23.87
2018-12-17T14:04:43.809Z,26.23
2018-12-17T14:07:12.024Z,22.93
2018-12-17T14:09:45.643Z,28.13
2018-12-17T14:12:13.812Z,23.37
2018-12-17T14:14:41.942Z,23.87
2018-12-17T14:17:15.424Z,26.90
2018-12-17T14:19:47.872Z,27.83
2018-12-17T14:22:16.058Z,23.30
2018-12-17T14:24:44.246Z,25.03
2018-12-17T14:27:12.565Z,25.60
2018-12-17T14:29:40.740Z,24.70
2018-12-17T14:32:08.981Z,27.97
2018-12-17T14:34:40.423Z,28.20
2018-12-17T14:37:08.678Z,25.60
2018-12-17T14:39:36.904Z,25.23
2018-12-17T14:42:05.236Z,24.07
2018-12-17T14:44:34.826Z,24.50
2018-12-17T14:47:03.659Z,25.07
2018-12-17T14:49:31.955Z,23.60
2018-12-17T14:52:00.112Z,25.03
2018-12-17T14:54:28.464Z,31.47
2018-12-17T14:56:56.664Z,26.57
2018-12-17T15:02:32.909Z,27.07
2018-12-17T15:05:02.107Z,23.93
2018-12-17T15:07:30.482Z,26.00
2018-12-17T15:09:59.155Z,26.97
2018-12-17T15:12:28.611Z,25.07
2018-12-17T15:14:57.206Z,26.53
2018-12-17T15:24:21.240Z,22.17
2018-12-17T15:26:49.573Z,24.63
2018-12-17T15:29:17.733Z,23.87
2018-12-17T15:31:45.968Z,25.37
2018-12-17T15:34:14.130Z,24.80
2018-12-17T15:36:42.479Z,31.40
2018-12-17T15:39:10.980Z,24.87
2018-12-17T15:41:39.234Z,24.07
2018-12-17T15:44:07.422Z,25.23
2018-12-17T15:46:35.703Z,25.47
2018-12-17T15:49:04.051Z,24.77
2018-12-17T15:51:32.974Z,24.70
2018-12-17T15:54:01.261Z,25.40
2018-12-17T15:56:29.464Z,23.23
2018-12-17T15:58:57.706Z,27.77
2018-12-17T16:01:28.085Z,25.60
2018-12-17T16:03:56.283Z,27.70
2018-12-17T16:06:24.505Z,25.60
2018-12-17T16:08:52.788Z,26.10
2018-12-17T16:11:20.948Z,24.13
2018-12-17T16:13:49.219Z,23.73
2018-12-17T16:16:17.685Z,24.97
2018-12-17T16:18:46.208Z,24.83
2018-12-17T16:21:14.441Z,22.77
2018-12-17T16:23:42.733Z,24.40
2018-12-17T16:26:11.017Z,23.47
2018-12-17T16:28:39.281Z,23.83
2018-12-17T16:31:07.486Z,25.00
2018-12-17T16:33:35.704Z,21.97
2018-12-17T16:36:04.066Z,24.50
2018-12-17T16:38:32.336Z,26.17
2018-12-17T16:41:01.080Z,23.57
2018-12-17T16:43:29.327Z,22.90
2018-12-17T16:45:57.894Z,23.33
2018-12-17T16:48:26.149Z,29.47
2018-12-17T16:50:54.463Z,22.77
2018-12-17T16:53:22.728Z,24.20
2018-12-17T16:55:51.049Z,24.57
2018-12-17T16:58:19.228Z,22.90
2018-12-17T17:00:49.146Z,21.77
2018-12-17T17:03:17.311Z,23.93
2018-12-17T17:05:45.590Z,24.67
2018-12-17T17:08:13.893Z,23.43
2018-12-17T17:10:42.173Z,25.07
2018-12-17T17:13:10.455Z,23.60
2018-12-17T17:15:45.126Z,25.17
2018-12-17T17:18:13.349Z,23.07
2018-12-17T17:20:42.320Z,23.83
2018-12-17T17:23:10.680Z,23.43
2018-12-17T17:25:38.970Z,25.87
2018-12-17T17:28:07.246Z,26.77
2018-12-17T17:30:35.537Z,23.67
2018-12-17T17:33:04.232Z,27.30
2018-12-17T17:35:33.933Z,24.23
2018-12-17T17:38:02.226Z,26.57
2018-12-17T17:40:30.449Z,23.63
2018-12-17T17:42:58.830Z,27.03
2018-12-17T17:45:27.105Z,25.17
2018-12-17T17:47:55.966Z,24.50
2018-12-17T17:50:24.314Z,23.03
2018-12-17T17:52:52.497Z,24.37
2018-12-17T17:55:20.694Z,24.73
2018-12-17T17:57:48.878Z,24.00
2018-12-17T18:00:17.152Z,24.17
2018-12-17T18:02:45.353Z,24.47
2018-12-17T18:05:13.650Z,25.43
2018-12-17T18:07:41.965Z,23.47
2018-12-17T18:10:11.068Z,26.67
2018-12-17T18:12:40.072Z,27.43
2018-12-17T18:15:08.644Z,24.30
2018-12-17T18:17:36.938Z,27.13
2018-12-17T18:20:05.704Z,26.17
2018-12-17T18:22:33.868Z,26.23
2018-12-17T18:25:02.094Z,29.10
2018-12-17T18:27:30.586Z,26.40
2018-12-17T18:29:59.112Z,24.17
2018-12-17T18:32:27.389Z,26.90
2018-12-17T18:34:55.606Z,26.97
2018-12-17T18:37:25.117Z,26.27
2018-12-17T18:39:53.693Z,26.90
2018-12-17T18:42:23.406Z,24.43
2018-12-17T19:05:22.283Z,28.13
2018-12-17T19:08:26.825Z,25.03
2018-12-17T19:10:56.029Z,30.60
2018-12-17T19:13:30.996Z,28.90
2018-12-17T19:15:59.255Z,27.83
2018-12-17T19:18:29.064Z,28.87
2018-12-17T19:20:57.340Z,30.50
2018-12-17T19:23:25.620Z,26.97
2018-12-17T19:25:53.877Z,26.23
2018-12-17T19:28:35.699Z,27.80
2018-12-17T19:31:18.668Z,23.40
2018-12-17T19:34:35.630Z,25.07
2018-12-17T19:37:04.363Z,25.57
2018-12-17T19:42:44.284Z,27.10
2018-12-17T19:47:58.877Z,26.30
2018-12-17T19:50:27.673Z,23.67
2018-12-17T19:56:03.624Z,26.17
2018-12-17T19:59:45.252Z,26.67
2018-12-17T20:02:13.604Z,27.87
2018-12-17T20:04:41.916Z,26.67
2018-12-17T20:07:14.037Z,25.07
2018-12-17T20:09:47.744Z,29.53
2018-12-17T20:12:16.081Z,26.23
2018-12-17T20:14:44.354Z,27.93
2018-12-17T20:17:12.752Z,27.67
2018-12-17T20:19:41.008Z,25.27
2018-12-17T20:22:09.424Z,28.97
2018-12-17T20:24:37.811Z,24.63
2018-12-17T20:27:06.199Z,29.00
2018-12-17T20:29:34.452Z,23.90
2018-12-17T20:32:03.082Z,24.77
2018-12-17T20:40:40.836Z,26.70
2018-12-17T20:47:02.090Z,23.50
2018-12-17T20:49:30.325Z,31.87
2018-12-17T20:51:59.758Z,24.57
2018-12-17T20:54:48.382Z,24.50
2018-12-17T20:57:29.186Z,26.17
2018-12-17T21:03:02.958Z,25.90
2018-12-17T21:05:36.900Z,25.50
2018-12-17T21:11:04.935Z,32.83
2018-12-17T21:13:49.512Z,26.67
2018-12-17T21:16:19.296Z,30.30
2018-12-17T21:18:47.865Z,28.50
2018-12-17T21:24:36.240Z,24.27
2018-12-17T21:27:10.332Z,24.30
2018-12-17T21:29:38.668Z,24.60
2018-12-17T21:32:08.146Z,28.17
2018-12-17T21:34:36.646Z,28.47
2018-12-17T21:37:18.821Z,29.90
2018-12-17T21:39:47.397Z,25.07
2018-12-17T21:48:24.508Z,29.83
2018-12-17T21:54:50.994Z,25.97
2018-12-17T22:03:42.086Z,29.67
2018-12-17T22:13:11.593Z,31.17
2018-12-17T22:17:32.484Z,28.23
2018-12-17T22:20:18.343Z,29.07
2018-12-17T22:22:48.572Z,30.20
2018-12-17T22:34:18.276Z,26.87
2018-12-17T22:36:52.615Z,30.50
2018-12-17T22:39:29.286Z,29.73
2018-12-17T22:42:03.464Z,31.63
2018-12-17T22:44:42.210Z,26.77
2018-12-17T22:47:21.734Z,28.63
2018-12-17T22:49:52.460Z,28.87
2018-12-17T23:06:46.589Z,29.07
2018-12-17T23:28:55.603Z,33.33
2018-12-17T23:31:23.861Z,33.67
2018-12-17T23:33:58.406Z,33.10
2018-12-17T23:36:58.771Z,29.37
2018-12-17T23:39:31.435Z,30.50
2018-12-17T23:42:28.714Z,33.40
2018-12-17T23:45:03.431Z,33.37
2018-12-17T23:47:33.692Z,28.33
